createdAt,value
2023-02-21T00:00:29.341Z,14.8
2023-02-21T00:04:16.328Z,13.5
2023-02-21T00:07:35.470Z,14.1
2023-02-21T00:10:54.486Z,15.2
2023-02-21T00:14:14.175Z,14.6
2023-02-21T00:17:33.132Z,13.3
2023-02-21T00:20:52.269Z,14.2
2023-02-21T00:24:11.273Z,15.3
2023-02-21T00:27:31.622Z,13.8
2023-02-21T00:30:50.733Z,14.3
2023-02-21T00:34:09.649Z,14.9
2023-02-21T00:37:28.734Z,15.7
2023-02-21T00:40:47.743Z,13.8
2023-02-21T00:44:06.756Z,13.6
2023-02-21T00:47:25.773Z,14.9
2023-02-21T00:50:44.835Z,15.1
2023-02-21T00:54:03.871Z,15.5
2023-02-21T00:57:22.857Z,14.1
2023-02-21T01:00:43.061Z,14.4
2023-02-21T01:04:02.593Z,14.7
2023-02-21T01:07:22.024Z,15.2
2023-02-21T01:10:41.039Z,14.7
2023-02-21T01:14:00.356Z,13.1
2023-02-21T01:17:20.445Z,14.1
2023-02-21T01:20:39.422Z,15.1
2023-02-21T01:23:58.501Z,15.9
2023-02-21T01:27:18.136Z,14.8
2023-02-21T01:30:37.224Z,13.7
2023-02-21T01:33:56.278Z,14.6
2023-02-21T01:37:15.261Z,15
2023-02-21T01:40:34.323Z,15.9
2023-02-21T01:43:55.258Z,14.3
2023-02-21T01:47:20.731Z,13.6
2023-02-21T01:50:41.072Z,14.6
2023-02-21T01:54:00.347Z,15.3
2023-02-21T01:57:22.355Z,15.1
2023-02-21T02:00:41.999Z,13.3
2023-02-21T02:04:01.970Z,14
2023-02-21T02:07:21.391Z,15
2023-02-21T02:10:41.021Z,15.7
2023-02-21T02:14:02.590Z,14.3
2023-02-21T02:17:07.962Z,14
2023-02-21T02:20:04.909Z,14.4
2023-02-21T02:23:23.033Z,14.9
2023-02-21T02:26:39.995Z,15.4
2023-02-21T02:30:40.535Z,14.1
2023-02-21T02:34:14.635Z,13.6
2023-02-21T02:37:38.855Z,14.6
2023-02-21T02:40:34.836Z,15.2
2023-02-21T02:43:34.858Z,14.1
2023-02-21T02:46:29.586Z,13.5
2023-02-21T02:49:21.716Z,14.4
2023-02-21T02:52:12.485Z,15.1
2023-02-21T02:55:00.339Z,13.9
2023-02-21T02:58:05.430Z,13.6
2023-02-21T03:00:55.775Z,15
2023-02-21T03:04:03.763Z,15.4
2023-02-21T03:07:08.800Z,14.1
2023-02-21T03:10:06.738Z,13
2023-02-21T03:13:06.494Z,14.1
2023-02-21T03:16:00.869Z,15
2023-02-21T03:18:56.184Z,14.6
2023-02-21T03:21:48.742Z,13
2023-02-21T03:24:40.702Z,13.2
2023-02-21T03:27:31.296Z,13.5
2023-02-21T03:30:20.732Z,14.5
2023-02-21T03:33:08.424Z,14.6
2023-02-21T03:35:56.224Z,12.7
2023-02-21T03:38:45.873Z,13
2023-02-21T03:41:33.351Z,13.7
2023-02-21T03:44:20.983Z,14.2
2023-02-21T03:47:08.297Z,12.7
2023-02-21T03:49:55.700Z,12.1
2023-02-21T03:52:43.169Z,13.1
2023-02-21T03:55:30.599Z,13.8
2023-02-21T03:58:18.241Z,13.1
2023-02-21T04:01:05.742Z,12.2
2023-02-21T04:03:53.083Z,12.9
2023-02-21T04:06:40.731Z,13.9
2023-02-21T04:09:28.131Z,13.2
2023-02-21T04:12:15.580Z,11.8
2023-02-21T04:15:03.169Z,11.8
2023-02-21T04:17:51.286Z,13
2023-02-21T04:20:38.656Z,12.7
2023-02-21T04:23:26.089Z,11.7
2023-02-21T04:26:13.539Z,11.3
2023-02-21T04:29:01.235Z,12.2
2023-02-21T04:31:49.989Z,12.9
2023-02-21T04:34:38.008Z,11.6
2023-02-21T04:37:25.456Z,11.3
2023-02-21T04:40:12.825Z,12.5
2023-02-21T04:43:00.837Z,12.8
2023-02-21T04:45:49.084Z,11.8
2023-02-21T04:48:36.517Z,10.9
2023-02-21T04:51:23.848Z,12.1
2023-02-21T04:54:13.986Z,13
2023-02-21T04:57:01.869Z,11.8
2023-02-21T04:59:49.742Z,10.9
2023-02-21T05:02:42.369Z,12
2023-02-21T05:05:31.652Z,12.6
2023-02-21T05:08:19.329Z,11.8
2023-02-21T05:11:07.735Z,10.8
2023-02-21T05:13:55.042Z,11.6
2023-02-21T05:16:42.527Z,12.3
2023-02-21T05:19:30.464Z,12.2
2023-02-21T05:22:18.059Z,11.1
2023-02-21T05:25:07.120Z,10.6
2023-02-21T05:28:00.912Z,11.6
2023-02-21T05:30:49.573Z,12.4
2023-02-21T05:33:36.957Z,11.5
2023-02-21T05:36:24.303Z,10.5
2023-02-21T05:39:12.039Z,11
2023-02-21T05:41:59.604Z,12.2
2023-02-21T05:44:48.016Z,11.4
2023-02-21T05:47:35.470Z,10.4
2023-02-21T05:50:23.042Z,10.6
2023-02-21T05:53:10.597Z,12.1
2023-02-21T05:55:58.034Z,12
2023-02-21T05:58:46.687Z,11.1
2023-02-21T06:01:34.134Z,10.4
2023-02-21T06:04:21.915Z,11.5
2023-02-21T06:07:09.878Z,12.3
2023-02-21T06:09:57.267Z,11.5
2023-02-21T06:12:44.644Z,10.6
2023-02-21T06:15:32.597Z,10.8
2023-02-21T06:18:19.873Z,11.7
2023-02-21T06:21:07.279Z,11.1
2023-02-21T06:23:54.585Z,10.4
2023-02-21T06:26:42.399Z,10.2
2023-02-21T06:29:29.840Z,11.8
2023-02-21T06:32:17.316Z,11.5
2023-02-21T06:35:04.601Z,10.6
2023-02-21T06:37:52.708Z,9.9
2023-02-21T06:40:40.052Z,10.4
2023-02-21T06:43:28.552Z,11.3
2023-02-21T06:46:15.939Z,10.5
2023-02-21T06:49:03.877Z,9.9
2023-02-21T06:51:51.283Z,9.5
2023-02-21T06:54:38.671Z,10.8
2023-02-21T06:57:26.258Z,11.6
2023-02-21T07:00:13.716Z,10.8
2023-02-21T07:03:02.251Z,10.1
2023-02-21T07:05:50.243Z,9.7
2023-02-21T07:08:37.564Z,10.6
2023-02-21T07:11:25.378Z,12
2023-02-21T07:14:13.753Z,11.1
2023-02-21T07:17:01.624Z,10.4
2023-02-21T07:19:49.510Z,9.7
2023-02-21T07:22:37.054Z,10.2
2023-02-21T07:25:24.415Z,11.5
2023-02-21T07:28:11.809Z,11.2
2023-02-21T07:30:59.712Z,10.5
2023-02-21T07:33:48.242Z,9.9
2023-02-21T07:36:38.271Z,10.1
2023-02-21T07:39:27.298Z,11.3
2023-02-21T07:42:14.608Z,11.2
2023-02-21T07:45:02.238Z,10.6
2023-02-21T07:47:50.008Z,9.8
2023-02-21T07:50:38.028Z,9.5
2023-02-21T07:53:25.609Z,10.8
2023-02-21T07:56:12.996Z,11.3
2023-02-21T07:59:00.635Z,10.9
2023-02-21T08:01:49.066Z,10.2
2023-02-21T08:04:36.737Z,9.6
2023-02-21T08:07:24.142Z,10
2023-02-21T08:10:11.485Z,11.6
2023-02-21T08:13:07.148Z,11
2023-02-21T08:15:54.588Z,10.1
2023-02-21T08:18:41.977Z,9.6
2023-02-21T08:21:31.921Z,9.2
2023-02-21T08:24:19.594Z,10.4
2023-02-21T08:27:06.923Z,11.1
2023-02-21T08:29:55.478Z,10.4
2023-02-21T08:32:42.911Z,9.9
2023-02-21T08:35:33.287Z,9.3
2023-02-21T08:38:20.792Z,9.1
2023-02-21T08:41:08.173Z,9.9
2023-02-21T08:43:55.518Z,11.1
2023-02-21T08:46:42.960Z,10.7
2023-02-21T08:49:30.386Z,10.1
2023-02-21T08:52:17.813Z,9.6
2023-02-21T08:55:06.264Z,9.2
2023-02-21T08:57:54.079Z,9.1
2023-02-21T09:00:41.555Z,10.6
2023-02-21T09:03:28.958Z,10.6
2023-02-21T09:06:16.428Z,10
2023-02-21T09:09:04.029Z,9.5
2023-02-21T09:11:51.434Z,9.2
2023-02-21T09:14:38.894Z,9.1
2023-02-21T09:17:27.960Z,10.6
2023-02-21T09:20:18.548Z,10.9
2023-02-21T09:23:08.401Z,10.4
2023-02-21T09:25:55.875Z,9.8
2023-02-21T09:28:43.294Z,9.3
2023-02-21T09:31:31.424Z,9
2023-02-21T09:34:18.754Z,9.6
2023-02-21T09:37:06.914Z,11.2
2023-02-21T09:39:54.412Z,11
2023-02-21T09:42:41.876Z,10.4
2023-02-21T09:45:29.440Z,9.7
2023-02-21T09:48:19.727Z,9.3
2023-02-21T09:51:09.065Z,8.9
2023-02-21T09:53:59.400Z,9.1
2023-02-21T09:56:49.257Z,10.6
2023-02-21T09:59:36.900Z,10.7
2023-02-21T10:02:24.904Z,10.1
2023-02-21T10:05:28.406Z,9.6
2023-02-21T10:08:27.259Z,9.2
2023-02-21T10:11:24.710Z,8.9
2023-02-21T10:14:22.437Z,9.3
2023-02-21T10:17:19.123Z,10.9
2023-02-21T10:20:12.225Z,10.6
2023-02-21T10:23:04.576Z,10.1
2023-02-21T10:26:00.699Z,9.5
2023-02-21T10:28:56.713Z,9.1
2023-02-21T10:31:45.567Z,8.9
2023-02-21T10:34:37.653Z,10.1
2023-02-21T10:37:28.201Z,11
2023-02-21T10:40:25.218Z,10.4
2023-02-21T10:43:20.221Z,9.9
2023-02-21T10:46:13.001Z,9.6
2023-02-21T10:49:06.790Z,9.3
2023-02-21T10:52:07.714Z,9.1
2023-02-21T10:54:57.798Z,8.9
2023-02-21T10:57:48.041Z,8.9
2023-02-21T11:00:39.023Z,9.8
2023-02-21T11:03:32.412Z,10.9
2023-02-21T11:06:20.378Z,10.6
2023-02-21T11:09:12.452Z,10.2
2023-02-21T11:12:15.892Z,9.7
2023-02-21T11:15:06.587Z,9.5
2023-02-21T11:18:03.463Z,9.3
2023-02-21T11:20:58.014Z,9.1
2023-02-21T11:23:56.985Z,9
2023-02-21T11:26:47.539Z,8.9
2023-02-21T11:29:38.142Z,8.8
2023-02-21T11:32:29.523Z,10
2023-02-21T11:35:21.576Z,11.2
2023-02-21T11:38:12.399Z,10.7
2023-02-21T11:41:20.744Z,10.2
2023-02-21T11:44:13.395Z,9.8
2023-02-21T11:47:11.594Z,9.5
2023-02-21T11:50:02.368Z,9.3
2023-02-21T11:52:56.471Z,9.2
2023-02-21T11:55:51.871Z,9.1
2023-02-21T11:58:48.720Z,9
2023-02-21T12:01:47.182Z,9
2023-02-21T12:04:43.272Z,8.9
2023-02-21T12:07:44.531Z,8.9
2023-02-21T12:10:41.666Z,8.8
2023-02-21T12:13:36.866Z,8.8
2023-02-21T12:16:37.078Z,10.5
2023-02-21T12:19:37.596Z,11
2023-02-21T12:23:00.721Z,10.4
2023-02-21T12:25:57.520Z,10
2023-02-21T12:28:56.280Z,9.8
2023-02-21T12:31:57.960Z,9.5
2023-02-21T12:35:01.223Z,9.4
2023-02-21T12:38:12.660Z,9.3
2023-02-21T12:41:11.427Z,9.3
2023-02-21T12:44:23.572Z,9.3
2023-02-21T12:47:18.804Z,9.2
2023-02-21T12:50:15.218Z,9.2
2023-02-21T12:53:07.743Z,9.2
2023-02-21T12:56:01.497Z,9.1
2023-02-21T12:58:54.970Z,9.1
2023-02-21T13:01:47.902Z,9.1
2023-02-21T13:04:41.371Z,9.1
2023-02-21T13:07:34.574Z,9.1
2023-02-21T13:10:28.032Z,9
2023-02-21T13:13:24.843Z,9
2023-02-21T13:16:16.897Z,8.9
2023-02-21T13:19:05.199Z,8.9
2023-02-21T13:21:55.323Z,8.9
2023-02-21T13:40:57.733Z,10.5
2023-02-21T13:43:54.613Z,10.1
2023-02-21T13:46:43.544Z,9.8
2023-02-21T13:49:55.064Z,9.6
2023-02-21T13:52:43.758Z,9.4
2023-02-21T13:55:38.760Z,9.3
2023-02-21T13:58:58.244Z,9.2
2023-02-21T14:02:17.746Z,9.1
2023-02-21T14:05:15.644Z,9
2023-02-21T14:08:03.350Z,9
2023-02-21T14:10:52.782Z,8.9
2023-02-21T14:13:42.714Z,8.9
2023-02-21T14:16:35.042Z,8.8
2023-02-21T14:19:32.948Z,8.8
2023-02-21T14:22:27.008Z,8.8
2023-02-21T14:25:16.410Z,8.8
2023-02-21T14:28:09.604Z,8.7
2023-02-21T14:31:44.650Z,8.7
2023-02-21T14:34:43.428Z,8.7
2023-02-21T14:37:40.178Z,8.7
2023-02-21T14:40:30.247Z,8.7
2023-02-21T14:43:27.857Z,8.7
2023-02-21T14:46:29.884Z,9.9
2023-02-21T14:49:32.785Z,11.1
2023-02-21T14:53:03.244Z,10.6
2023-02-21T14:56:22.330Z,10.2
2023-02-21T14:59:25.623Z,9.8
2023-02-21T15:02:28.046Z,9.5
2023-02-21T15:05:24.641Z,9.3
2023-02-21T15:08:16.502Z,9.1
2023-02-21T15:11:05.574Z,9
2023-02-21T15:14:05.238Z,8.9
2023-02-21T15:16:58.769Z,8.8
2023-02-21T15:19:55.586Z,8.7
2023-02-21T15:23:00.562Z,8.7
2023-02-21T15:25:57.747Z,8.6
2023-02-21T15:29:01.732Z,10
2023-02-21T15:31:51.683Z,11.3
2023-02-21T15:34:41.705Z,10.9
2023-02-21T15:37:32.511Z,10.4
2023-02-21T15:40:25.479Z,10
2023-02-21T15:43:13.846Z,9.5
2023-02-21T15:46:13.273Z,9.2
2023-02-21T15:49:06.312Z,9
2023-02-21T15:52:02.998Z,8.8
2023-02-21T15:54:51.022Z,8.7
2023-02-21T15:57:58.672Z,10.1
2023-02-21T16:00:49.332Z,11.5
2023-02-21T16:03:51.770Z,10.9
2023-02-21T16:06:59.895Z,10.2
2023-02-21T16:09:50.234Z,9.7
2023-02-21T16:12:45.005Z,9.4
2023-02-21T16:15:39.475Z,9.1
2023-02-21T16:18:27.978Z,8.9
2023-02-21T16:21:15.715Z,8.7
2023-02-21T16:24:08.370Z,10
2023-02-21T16:27:28.148Z,11.6
2023-02-21T16:30:15.519Z,11.1
2023-02-21T16:33:05.919Z,10.4
2023-02-21T16:35:58.392Z,9.9
2023-02-21T16:38:50.456Z,9.5
2023-02-21T16:41:38.153Z,9.1
2023-02-21T16:44:25.510Z,8.8
2023-02-21T16:47:14.303Z,9.8
2023-02-21T16:50:05.029Z,11.3
2023-02-21T16:53:02.975Z,11
2023-02-21T16:55:50.979Z,10.5
2023-02-21T16:58:38.536Z,9.8
2023-02-21T17:01:29.001Z,9.3
2023-02-21T17:04:18.071Z,8.9
2023-02-21T17:07:08.504Z,8.7
2023-02-21T17:09:56.352Z,10
2023-02-21T17:12:43.676Z,11.5
2023-02-21T17:15:31.174Z,11.3
2023-02-21T17:18:18.572Z,10.6
2023-02-21T17:21:05.921Z,9.9
2023-02-21T17:23:53.278Z,9.4
2023-02-21T17:26:42.004Z,9
2023-02-21T17:29:29.528Z,9.7
2023-02-21T17:32:16.948Z,11.6
2023-02-21T17:35:04.396Z,11.9
2023-02-21T17:37:52.646Z,10.9
2023-02-21T17:40:40.105Z,10
2023-02-21T17:43:27.423Z,9.5
2023-02-21T17:46:15.489Z,9
2023-02-21T17:49:04.741Z,9
2023-02-21T17:51:52.134Z,10.7
2023-02-21T17:54:40.053Z,11
2023-02-21T17:57:27.577Z,10.6
2023-02-21T18:00:19.634Z,9.9
2023-02-21T18:03:09.335Z,9.2
2023-02-21T18:05:56.776Z,8.7
2023-02-21T18:08:44.282Z,9.5
2023-02-21T18:11:32.009Z,11.4
2023-02-21T18:14:20.469Z,11.2
2023-02-21T18:17:10.721Z,10.5
2023-02-21T18:19:58.047Z,9.8
2023-02-21T18:22:45.843Z,9.3
2023-02-21T18:25:33.328Z,8.7
2023-02-21T18:28:26.148Z,9.3
2023-02-21T18:31:14.918Z,11.5
2023-02-21T18:34:03.792Z,11.5
2023-02-21T18:36:52.201Z,10.5
2023-02-21T18:39:39.765Z,9.8
2023-02-21T18:42:27.110Z,9.2
2023-02-21T18:45:14.519Z,8.7
2023-02-21T18:48:02.318Z,8.2
2023-02-21T18:50:50.408Z,9.3
2023-02-21T18:53:38.347Z,11.3
2023-02-21T18:56:28.293Z,11.1
2023-02-21T18:59:15.709Z,10.1
2023-02-21T19:02:04.496Z,9.4
2023-02-21T19:04:53.923Z,8.7
2023-02-21T19:07:41.319Z,8.3
2023-02-21T19:10:29.146Z,8.9
2023-02-21T19:13:16.994Z,10.8
2023-02-21T19:16:04.905Z,10.8
2023-02-21T19:18:52.525Z,9.8
2023-02-21T19:21:41.603Z,9.2
2023-02-21T19:24:30.245Z,8.5
2023-02-21T19:27:18.029Z,8.1
2023-02-21T19:30:05.706Z,8.9
2023-02-21T19:32:55.065Z,11.2
2023-02-21T19:35:43.653Z,11.2
2023-02-21T19:38:30.943Z,10.3
2023-02-21T19:41:18.868Z,9.5
2023-02-21T19:44:06.698Z,8.8
2023-02-21T19:46:54.454Z,8.4
2023-02-21T19:49:41.945Z,9
2023-02-21T19:52:30.553Z,11
2023-02-21T19:55:18.059Z,11.1
2023-02-21T19:58:05.853Z,10.3
2023-02-21T20:00:54.010Z,9.4
2023-02-21T20:03:41.367Z,8.8
2023-02-21T20:06:28.875Z,8.4
2023-02-21T20:09:19.878Z,8.9
2023-02-21T20:12:08.011Z,11
2023-02-21T20:14:55.232Z,11.1
2023-02-21T20:17:42.799Z,10.3
2023-02-21T20:20:30.132Z,9.7
2023-02-21T20:23:18.193Z,9
2023-02-21T20:26:05.732Z,8.5
2023-02-21T20:28:56.492Z,9
2023-02-21T20:31:44.285Z,11.1
2023-02-21T20:34:32.810Z,11.3
2023-02-21T20:37:23.891Z,10.5
2023-02-21T20:40:15.746Z,9.7
2023-02-21T20:43:03.353Z,9.1
2023-02-21T20:45:50.876Z,8.6
2023-02-21T20:48:38.217Z,8.4
2023-02-21T20:51:25.544Z,10.3
2023-02-21T20:54:15.197Z,11.5
2023-02-21T20:57:05.859Z,10.9
2023-02-21T20:59:54.675Z,10
2023-02-21T21:02:42.046Z,9.4
2023-02-21T21:05:29.525Z,8.8
2023-02-21T21:08:17.334Z,8.4
2023-02-21T21:11:04.706Z,9.3
2023-02-21T21:13:53.391Z,11.4
2023-02-21T21:16:41.086Z,11.5
2023-02-21T21:19:28.732Z,10.8
2023-02-21T21:22:18.515Z,9.9
2023-02-21T21:25:08.518Z,9.2
2023-02-21T21:27:57.485Z,8.6
2023-02-21T21:30:45.235Z,8.3
2023-02-21T21:33:32.686Z,10
2023-02-21T21:36:20.579Z,11.3
2023-02-21T21:39:08.026Z,10.8
2023-02-21T21:41:59.361Z,9.9
2023-02-21T21:44:53.242Z,9.2
2023-02-21T21:47:42.275Z,8.6
2023-02-21T21:50:30.799Z,8.1
2023-02-21T21:53:18.179Z,9.1
2023-02-21T21:56:06.450Z,11.1
2023-02-21T21:58:55.928Z,11
2023-02-21T22:01:43.188Z,10.2
2023-02-21T22:04:30.578Z,9.3
2023-02-21T22:07:19.036Z,8.6
2023-02-21T22:10:07.770Z,8.6
2023-02-21T22:12:56.018Z,10.6
2023-02-21T22:15:45.050Z,11
2023-02-21T22:18:32.549Z,10.1
2023-02-21T22:21:19.890Z,9.2
2023-02-21T22:24:07.224Z,8.5
2023-02-21T22:26:54.829Z,9.1
2023-02-21T22:29:42.120Z,11
2023-02-21T22:32:30.271Z,10.9
2023-02-21T22:35:17.524Z,9.9
2023-02-21T22:38:05.800Z,9
2023-02-21T22:40:58.796Z,8.2
2023-02-21T22:43:46.791Z,8.9
2023-02-21T22:46:34.990Z,10.8
2023-02-21T22:49:26.188Z,10.7
2023-02-21T22:52:15.273Z,9.7
2023-02-21T22:55:02.951Z,8.8
2023-02-21T22:57:51.504Z,8.2
2023-02-21T23:00:43.502Z,9.3
2023-02-21T23:03:31.749Z,11.2
2023-02-21T23:06:19.166Z,11.2
2023-02-21T23:09:07.761Z,10.1
2023-02-21T23:11:57.698Z,9.2
2023-02-21T23:14:45.736Z,8.4
2023-02-21T23:17:33.049Z,8.5
2023-02-21T23:20:20.374Z,10.4
2023-02-21T23:23:11.284Z,10.7
2023-02-21T23:25:58.958Z,9.8
2023-02-21T23:28:47.440Z,8.8
2023-02-21T23:31:35.367Z,8.1
2023-02-21T23:34:22.784Z,9.1
2023-02-21T23:37:24.318Z,11.2
2023-02-21T23:40:12.030Z,10.9
2023-02-21T23:43:02.046Z,9.8
2023-02-21T23:45:54.555Z,8.9
2023-02-21T23:48:43.530Z,8.2
2023-02-21T23:51:30.875Z,9.7
2023-02-21T23:54:18.465Z,11.3
2023-02-21T23:57:05.822Z,10.7
2023-02-21T23:59:53.165Z,9.7
